Time;durP1;ratioP1;P1;durP2;ratioP2;P2;SDS_P1;SDS_P2;PMS_P1;PMS_P2;Temp;Humidity;BMP_temperature;BMP_pressure;BME280_temperature;BME280_humidity;BME280_pressure;Samples;Min_cycle;Max_cycle;Signal;HPM_P1;HPM_P2
2024/01/11 00:00:36;;;;;;;;;;;;;;;;;;4995642;28;19934;-67
2024/01/11 00:03:03;;;;;;;;;;;;;;;;;;5004136;28;20384;-66
2024/01/11 00:05:30;;;;;;;;;;;;;;;;;;4995378;28;19953;-67
2024/01/11 00:07:57;;;;;;;;;;;;;;;;;;4999542;28;19926;-67
2024/01/11 00:10:24;;;;;;;;;;;;;;;;;;5003007;28;19925;-68
2024/01/11 00:12:51;;;;;;;;;;;;;;;;;;5008532;28;19926;-68
2024/01/11 00:15:18;;;;;;;;;;;;;;;;;;4997685;28;19936;-67
2024/01/11 00:17:45;;;;;;;;;;;;;;;;;;5006414;28;19959;-68
2024/01/11 00:20:12;;;;;;;;;;;;;;;;;;5000360;28;20016;-67
2024/01/11 00:22:39;;;;;;;;;;;;;;;;;;4994737;28;19926;-68
2024/01/11 00:25:06;;;;;;;;;;;;;;;;;;4995940;28;19925;-68
2024/01/11 00:27:34;;;;;;;;;;;;;;;;;;4997192;28;19925;-68
2024/01/11 00:30:01;;;;;;;;;;;;;;;;;;5000330;28;20488;-68
2024/01/11 00:32:28;;;;;;;;;;;;;;;;;;5004061;28;19972;-68
2024/01/11 00:34:55;;;;;;;;;;;;;;;;;;4994338;28;19961;-68
2024/01/11 00:37:22;;;;;;;;;;;;;;;;;;4997957;28;20467;-67
2024/01/11 00:39:49;;;;;;;;;;;;;;;;;;4994552;28;19926;-67
2024/01/11 00:42:16;;;;;;;;;;;;;;;;;;4993823;28;19933;-67
2024/01/11 00:44:44;;;;;;;;;;;;;;;;;;5003749;28;19926;-67
2024/01/11 00:47:11;;;;;;;;;;;;;;;;;;5011944;28;19932;-68
2024/01/11 00:49:39;;;;;;;;;;;;;;;;;;4994682;28;19925;-67
2024/01/11 00:52:06;;;;;;;;;;;;;;;;;;5010119;28;20494;-66
2024/01/11 00:54:33;;;;;;;;;;;;;;;;;;4993395;28;19926;-66
2024/01/11 00:57:00;;;;;;;;;;;;;;;;;;4996491;28;19937;-67
2024/01/11 00:59:27;;;;;;;;;;;;;;;;;;5013703;28;19933;-67
2024/01/11 01:01:54;;;;;;;;;;;;;;;;;;4997913;28;19933;-67
2024/01/11 01:04:21;;;;;;;;;;;;;;;;;;5002403;28;20017;-67
2024/01/11 01:06:48;;;;;;;;;;;;;;;;;;4993314;28;20004;-67
2024/01/11 01:09:16;;;;;;;;;;;;;;;;;;5001708;28;19929;-67
2024/01/11 01:11:43;;;;;;;;;;;;;;;;;;5004863;28;19925;-67
2024/01/11 01:14:10;;;;;;;;;;;;;;;;;;4994349;28;19926;-67
2024/01/11 01:16:37;;;;;;;;;;;;;;;;;;4993470;28;19949;-67
2024/01/11 01:19:04;;;;;;;;;;;;;;;;;;4993894;28;19965;-68
2024/01/11 01:21:31;;;;;;;;;;;;;;;;;;5010915;28;19926;-68
2024/01/11 01:23:58;;;;;;;;;;;;;;;;;;5009180;28;19977;-67
2024/01/11 01:26:25;;;;;;;;;;;;;;;;;;5000512;28;20356;-67
2024/01/11 01:28:53;;;;;;;;;;;;;;;;;;4993380;28;19926;-68
2024/01/11 01:31:20;;;;;;;;;;;;;;;;;;5005089;28;19964;-68
2024/01/11 01:33:47;;;;;;;;;;;;;;;;;;5010374;28;19952;-67
2024/01/11 01:36:14;;;;;;;;;;;;;;;;;;5004426;28;19933;-67
2024/01/11 01:38:41;;;;;;;;;;;;;;;;;;4996728;28;19949;-68
2024/01/11 01:41:08;;;;;;;;;;;;;;;;;;4998397;28;19932;-69
2024/01/11 01:43:35;;;;;;;;;;;;;;;;;;5007501;28;19971;-67
2024/01/11 01:46:02;;;;;;;;;;;;;;;;;;4994616;28;19980;-67
2024/01/11 01:48:29;;;;;;;;;;;;;;;;;;5003882;28;19930;-67
2024/01/11 01:50:57;;;;;;;;;;;;;;;;;;4992693;28;20285;-67
2024/01/11 01:53:24;;;;;;;;;;;;;;;;;;4993638;28;20393;-67
2024/01/11 01:55:51;;;;;;;;;;;;;;;;;;4999733;28;20091;-67
2024/01/11 01:58:18;;;;;;;;;;;;;;;;;;4996461;28;19934;-67
2024/01/11 02:00:45;;;;;;;;;;;;;;;;;;4994936;28;19926;-67
2024/01/11 02:03:12;;;;;;;;;;;;;;;;;;5003734;28;19926;-66
2024/01/11 02:05:39;;;;;;;;;;;;;;;;;;4999624;28;19930;-67
2024/01/11 02:08:08;;;;;;;;;;;;;;;;;;4992969;28;19965;-67
2024/01/11 02:10:35;;;;;;;;;;;;;;;;;;4998143;28;19934;-66
2024/01/11 02:13:02;;;;;;;;;;;;;;;;;;5011320;28;19932;-67
2024/01/11 02:15:29;;;;;;;;;;;;;;;;;;5001844;28;19973;-67
2024/01/11 02:17:56;;;;;;;;;;;;;;;;;;4991838;28;19933;-67
2024/01/11 02:20:23;;;;;;;;;;;;;;;;;;4992511;28;20024;-67
2024/01/11 02:22:50;;;;;;;;;;;;;;;;;;4991739;28;20404;-67
2024/01/11 02:25:17;;;;;;;;;;;;;;;;;;4991490;28;19926;-67
2024/01/11 02:27:44;;;;;;;;;;;;;;;;;;4996167;28;20389;-67
2024/01/11 02:30:11;;;;;;;;;;;;;;;;;;5007021;28;19926;-67
2024/01/11 02:32:39;;;;;;;;;;;;;;;;;;4993136;28;19926;-67
2024/01/11 02:35:06;;;;;;;;;;;;;;;;;;4994743;28;19933;-67
2024/01/11 02:37:33;;;;;;;;;;;;;;;;;;4992572;28;19925;-66
2024/01/11 02:40:00;;;;;;;;;;;;;;;;;;4992796;28;20444;-66
2024/01/11 02:42:27;;;;;;;;;;;;;;;;;;4992870;28;19926;-68
2024/01/11 02:44:54;;;;;;;;;;;;;;;;;;4992752;28;20403;-66
2024/01/11 02:47:22;;;;;;;;;;;;;;;;;;4992605;28;19930;-67
2024/01/11 02:49:49;;;;;;;;;;;;;;;;;;4993646;28;19925;-66
2024/01/11 02:52:16;;;;;;;;;;;;;;;;;;4991869;28;19925;-67
2024/01/11 02:54:43;;;;;;;;;;;;;;;;;;4998594;28;19925;-67
2024/01/11 02:57:10;;;;;;;;;;;;;;;;;;4993301;28;19930;-67
2024/01/11 02:59:37;;;;;;;;;;;;;;;;;;5005633;28;20344;-66
2024/01/11 03:02:04;;;;;;;;;;;;;;;;;;4993047;28;20299;-64
2024/01/11 03:04:31;;;;;;;;;;;;;;;;;;4991497;28;19957;-67
2024/01/11 03:06:59;;;;;;;;;;;;;;;;;;5000960;28;19926;-67
2024/01/11 03:09:26;;;;;;;;;;;;;;;;;;4997248;28;20318;-67
2024/01/11 03:11:53;;;;;;;;;;;;;;;;;;4992012;28;19986;-66
2024/01/11 03:14:20;;;;;;;;;;;;;;;;;;4991809;28;19930;-68
2024/01/11 03:16:47;;;;;;;;;;;;;;;;;;4994463;28;19941;-67
2024/01/11 03:19:14;;;;;;;;;;;;;;;;;;5007005;28;19925;-66
2024/01/11 03:21:41;;;;;;;;;;;;;;;;;;5011601;28;19972;-67
2024/01/11 03:24:08;;;;;;;;;;;;;;;;;;5004334;28;19926;-68
2024/01/11 03:26:35;;;;;;;;;;;;;;;;;;5004176;28;19979;-68
2024/01/11 03:29:02;;;;;;;;;;;;;;;;;;5004515;28;20348;-68
2024/01/11 03:31:29;;;;;;;;;;;;;;;;;;4991674;28;19937;-68
2024/01/11 03:33:56;;;;;;;;;;;;;;;;;;4991119;28;20025;-68
2024/01/11 03:36:23;;;;;;;;;;;;;;;;;;4992903;28;19930;-67
2024/01/11 03:38:51;;;;;;;;;;;;;;;;;;4992397;28;19926;-67
2024/01/11 03:41:18;;;;;;;;;;;;;;;;;;4991710;28;19926;-68
2024/01/11 03:43:45;;;;;;;;;;;;;;;;;;5006602;28;19926;-68
2024/01/11 03:46:12;;;;;;;;;;;;;;;;;;5004185;28;19929;-67
2024/01/11 03:48:39;;;;;;;;;;;;;;;;;;5001350;28;19933;-68
2024/01/11 03:51:06;;;;;;;;;;;;;;;;;;5011483;28;19976;-68
2024/01/11 03:53:33;;;;;;;;;;;;;;;;;;5001768;28;19926;-67
2024/01/11 03:56:00;;;;;;;;;;;;;;;;;;5007388;28;19926;-68
2024/01/11 03:58:28;;;;;;;;;;;;;;;;;;5010529;28;19926;-68
2024/01/11 04:00:55;;;;;;;;;;;;;;;;;;4992165;28;19926;-68
2024/01/11 04:03:22;;;;;;;;;;;;;;;;;;4991627;28;19925;-68
2024/01/11 04:05:49;;;;;;;;;;;;;;;;;;4993922;28;19925;-68
2024/01/11 04:08:16;;;;;;;;;;;;;;;;;;5011354;28;20022;-68
2024/01/11 04:10:43;;;;;;;;;;;;;;;;;;5010399;28;19929;-68
2024/01/11 04:13:10;;;;;;;;;;;;;;;;;;4995596;28;19926;-68
2024/01/11 04:15:38;;;;;;;;;;;;;;;;;;4996058;28;20297;-68
2024/01/11 04:18:05;;;;;;;;;;;;;;;;;;4999452;28;19944;-68
2024/01/11 04:20:32;;;;;;;;;;;;;;;;;;5012903;28;19948;-68
2024/01/11 04:22:59;;;;;;;;;;;;;;;;;;5014306;28;19933;-68
2024/01/11 04:25:26;;;;;;;;;;;;;;;;;;5015115;28;19925;-68
2024/01/11 04:27:53;;;;;;;;;;;;;;;;;;4999266;28;19926;-68
2024/01/11 04:30:20;;;;;;;;;;;;;;;;;;4995266;28;19926;-69
2024/01/11 04:32:47;;;;;;;;;;;;;;;;;;4995890;28;19929;-68
2024/01/11 04:35:15;;;;;;;;;;;;;;;;;;5001238;28;20373;-67
2024/01/11 04:37:42;;;;;;;;;;;;;;;;;;4994686;28;20372;-67
2024/01/11 04:40:09;;;;;;;;;;;;;;;;;;4995217;28;19926;-67
2024/01/11 04:42:36;;;;;;;;;;;;;;;;;;4995420;28;20290;-67
2024/01/11 04:45:04;;;;;;;;;;;;;;;;;;5009586;28;19933;-67
2024/01/11 04:47:32;;;;;;;;;;;;;;;;;;5012498;28;19925;-67
2024/01/11 04:49:59;;;;;;;;;;;;;;;;;;4998655;28;19936;-67
2024/01/11 04:52:26;;;;;;;;;;;;;;;;;;4994924;28;20396;-67
2024/01/11 04:54:54;;;;;;;;;;;;;;;;;;5008737;28;19926;-67
2024/01/11 04:57:21;;;;;;;;;;;;;;;;;;5003363;28;19926;-67
2024/01/11 04:59:48;;;;;;;;;;;;;;;;;;4994512;28;19926;-67
2024/01/11 05:02:15;;;;;;;;;;;;;;;;;;4995101;28;19933;-68
2024/01/11 05:04:42;;;;;;;;;;;;;;;;;;4993813;28;20266;-66
2024/01/11 05:07:09;;;;;;;;;;;;;;;;;;4994213;28;19930;-67
2024/01/11 05:09:36;;;;;;;;;;;;;;;;;;4994486;28;19932;-67
2024/01/11 05:12:04;;;;;;;;;;;;;;;;;;4994260;28;19988;-67
2024/01/11 05:14:31;;;;;;;;;;;;;;;;;;4996066;28;20285;-67
2024/01/11 05:16:59;;;;;;;;;;;;;;;;;;5010338;28;19925;-68
2024/01/11 05:19:26;;;;;;;;;;;;;;;;;;4996709;28;19933;-69
2024/01/11 05:21:53;;;;;;;;;;;;;;;;;;4993674;28;20028;-68
2024/01/11 05:24:20;;;;;;;;;;;;;;;;;;5003557;28;19937;-67
2024/01/11 05:26:47;;;;;;;;;;;;;;;;;;5013659;28;19925;-67
2024/01/11 05:29:14;;;;;;;;;;;;;;;;;;5007909;28;19953;-67
2024/01/11 05:31:41;;;;;;;;;;;;;;;;;;4993315;28;19980;-68
2024/01/11 05:34:11;;;;;;;;;;;;;;;;;;4992672;28;19937;-66
2024/01/11 05:36:39;;;;;;;;;;;;;;;;;;5008684;28;19925;-67
2024/01/11 05:39:06;;;;;;;;;;;;;;;;;;4998737;28;19933;-67
2024/01/11 05:41:33;;;;;;;;;;;;;;;;;;5005279;28;19948;-67
2024/01/11 05:44:00;;;;;;;;;;;;;;;;;;5006882;28;19929;-67
2024/01/11 05:46:27;;;;;;;;;;;;;;;;;;4996386;28;19944;-67
2024/01/11 05:48:55;;;;;;;;;;;;;;;;;;4996674;28;19933;-67
2024/01/11 05:51:22;;;;;;;;;;;;;;;;;;4994020;28;19980;-67
2024/01/11 05:53:49;;;;;;;;;;;;;;;;;;5000085;28;20442;-67
2024/01/11 05:56:16;;;;;;;;;;;;;;;;;;5010474;28;20392;-67
2024/01/11 05:58:43;;;;;;;;;;;;;;;;;;5012578;28;19926;-67
2024/01/11 06:01:10;;;;;;;;;;;;;;;;;;5013025;28;19932;-67
2024/01/11 06:03:38;;;;;;;;;;;;;;;;;;4995073;28;19925;-67
2024/01/11 06:06:05;;;;;;;;;;;;;;;;;;4998010;28;19926;-67
2024/01/11 06:08:32;;;;;;;;;;;;;;;;;;5006804;28;19929;-67
2024/01/11 06:10:59;;;;;;;;;;;;;;;;;;4997399;28;19974;-68
2024/01/11 06:13:26;;;;;;;;;;;;;;;;;;5003306;28;20373;-67
2024/01/11 06:15:54;;;;;;;;;;;;;;;;;;5000760;28;19925;-67
2024/01/11 06:18:21;;;;;;;;;;;;;;;;;;4991795;28;20373;-68
2024/01/11 06:20:49;;;;;;;;;;;;;;;;;;4995110;28;20286;-67
2024/01/11 06:23:16;;;;;;;;;;;;;;;;;;5000176;28;20008;-68
2024/01/11 06:25:43;;;;;;;;;;;;;;;;;;5009110;28;19956;-66
2024/01/11 06:28:10;;;;;;;;;;;;;;;;;;5002870;28;19961;-67
2024/01/11 06:30:38;;;;;;;;;;;;;;;;;;5006455;28;19926;-66
2024/01/11 06:33:05;;;;;;;;;;;;;;;;;;4992783;28;19926;-67
2024/01/11 06:35:32;;;;;;;;;;;;;;;;;;5006782;28;19926;-66
2024/01/11 06:37:59;;;;;;;;;;;;;;;;;;4992442;28;19925;-67
2024/01/11 06:40:27;;;;;;;;;;;;;;;;;;4992827;28;20020;-66
2024/01/11 06:42:54;;;;;;;;;;;;;;;;;;4997397;28;19948;-66
2024/01/11 06:45:21;;;;;;;;;;;;;;;;;;4993813;28;19988;-66
2024/01/11 06:47:48;;;;;;;;;;;;;;;;;;5000265;28;19932;-66
2024/01/11 06:50:15;;;;;;;;;;;;;;;;;;4995147;28;19925;-67
2024/01/11 06:52:43;;;;;;;;;;;;;;;;;;4992609;28;19925;-67
2024/01/11 06:55:10;;;;;;;;;;;;;;;;;;4994304;28;19979;-67
2024/01/11 06:57:38;;;;;;;;;;;;;;;;;;5008174;28;19932;-67
2024/01/11 07:00:05;;;;;;;;;;;;;;;;;;5005892;28;19995;-66
2024/01/11 07:02:32;;;;;;;;;;;;;;;;;;4994092;28;20337;-67
2024/01/11 07:04:59;;;;;;;;;;;;;;;;;;4997809;28;19932;-65
2024/01/11 07:07:26;;;;;;;;;;;;;;;;;;4994084;28;19933;-68
2024/01/11 07:09:55;;;;;;;;;;;;;;;;;;4995541;28;20389;-67
2024/01/11 07:12:22;;;;;;;;;;;;;;;;;;4996048;28;20389;-68
2024/01/11 07:14:49;;;;;;;;;;;;;;;;;;4993188;28;19957;-67
2024/01/11 07:17:16;;;;;;;;;;;;;;;;;;4997382;28;20297;-65
2024/01/11 07:19:43;;;;;;;;;;;;;;;;;;4997738;28;19972;-65
2024/01/11 07:22:10;;;;;;;;;;;;;;;;;;4989772;28;19972;-65
2024/01/11 07:24:38;;;;;;;;;;;;;;;;;;4991585;28;19973;-65
2024/01/11 07:27:05;;;;;;;;;;;;;;;;;;4991587;28;20352;-65
2024/01/11 07:29:32;;;;;;;;;;;;;;;;;;4994170;28;19980;-65
2024/01/11 07:31:59;;;;;;;;;;;;;;;;;;5005757;28;20477;-65
2024/01/11 07:34:27;;;;;;;;;;;;;;;;;;5002459;28;19925;-65
2024/01/11 07:36:54;;;;;;;;;;;;;;;;;;4996487;28;19973;-65
2024/01/11 07:39:22;;;;;;;;;;;;;;;;;;5000475;28;19925;-65
2024/01/11 07:41:49;;;;;;;;;;;;;;;;;;5001390;28;20021;-65
2024/01/11 07:44:16;;;;;;;;;;;;;;;;;;4996110;28;19937;-66
2024/01/11 07:46:43;;;;;;;;;;;;;;;;;;4989376;28;19926;-66
2024/01/11 07:49:10;;;;;;;;;;;;;;;;;;4992523;28;19937;-66
2024/01/11 07:51:38;;;;;;;;;;;;;;;;;;4998165;28;19980;-66
2024/01/11 07:54:06;;;;;;;;;;;;;;;;;;4995489;28;19933;-65
2024/01/11 07:56:33;;;;;;;;;;;;;;;;;;4997051;28;19926;-64
2024/01/11 07:59:00;;;;;;;;;;;;;;;;;;4994677;28;19949;-64
2024/01/11 08:01:27;;;;;;;;;;;;;;;;;;4993309;28;19926;-64
2024/01/11 08:03:54;;;;;;;;;;;;;;;;;;4996999;28;19932;-65
2024/01/11 08:06:21;;;;;;;;;;;;;;;;;;5012100;28;20422;-64
2024/01/11 08:08:51;;;;;;;;;;;;;;;;;;5002551;28;19926;-64
2024/01/11 08:11:18;;;;;;;;;;;;;;;;;;4996930;28;20321;-64
2024/01/11 08:13:45;;;;;;;;;;;;;;;;;;4999622;28;20432;-64
2024/01/11 08:16:12;;;;;;;;;;;;;;;;;;4994009;28;20037;-65
2024/01/11 08:18:39;;;;;;;;;;;;;;;;;;4995337;28;19972;-65
2024/01/11 08:21:09;;;;;;;;;;;;;;;;;;4999850;28;19980;-65
2024/01/11 08:23:36;;;;;;;;;;;;;;;;;;4995775;28;20428;-64
2024/01/11 08:26:03;;;;;;;;;;;;;;;;;;5003481;28;20431;-65
2024/01/11 08:28:30;;;;;;;;;;;;;;;;;;5008710;28;20368;-65
2024/01/11 08:30:57;;;;;;;;;;;;;;;;;;4993674;28;19933;-65
2024/01/11 08:33:24;;;;;;;;;;;;;;;;;;4994468;28;20278;-65
2024/01/11 08:35:51;;;;;;;;;;;;;;;;;;4993024;28;19937;-64
2024/01/11 08:38:18;;;;;;;;;;;;;;;;;;4997869;28;20731;-65
2024/01/11 08:40:45;;;;;;;;;;;;;;;;;;5004809;28;19926;-65
2024/01/11 08:43:13;;;;;;;;;;;;;;;;;;5008963;28;19929;-64
2024/01/11 08:45:40;;;;;;;;;;;;;;;;;;5005610;28;19968;-65
2024/01/11 08:48:07;;;;;;;;;;;;;;;;;;4997052;28;20342;-65
2024/01/11 08:50:34;;;;;;;;;;;;;;;;;;5001497;28;20032;-64
2024/01/11 08:53:01;;;;;;;;;;;;;;;;;;5003781;28;20059;-64
2024/01/11 08:55:28;;;;;;;;;;;;;;;;;;4994270;28;19966;-64
2024/01/11 08:57:54;;;;;;;;;;;;;;;;;;4992508;28;19926;-65
2024/01/11 09:00:21;;;;;;;;;;;;;;;;;;5007322;28;19933;-65
2024/01/11 09:02:49;;;;;;;;;;;;;;;;;;4998216;28;19933;-65
2024/01/11 09:05:16;;;;;;;;;;;;;;;;;;5002721;28;19926;-65
2024/01/11 09:07:43;;;;;;;;;;;;;;;;;;5002375;28;19940;-65
2024/01/11 09:10:10;;;;;;;;;;;;;;;;;;4996790;28;20020;-65
2024/01/11 09:12:38;;;;;;;;;;;;;;;;;;4995498;28;19929;-65
2024/01/11 09:15:05;;;;;;;;;;;;;;;;;;4999744;28;19925;-65
2024/01/11 09:17:32;;;;;;;;;;;;;;;;;;5004987;28;19926;-66
2024/01/11 09:19:59;;;;;;;;;;;;;;;;;;5001105;28;19929;-65
2024/01/11 09:22:27;;;;;;;;;;;;;;;;;;4998758;28;19926;-64
2024/01/11 09:24:54;;;;;;;;;;;;;;;;;;5007505;28;20617;-65
2024/01/11 09:27:22;;;;;;;;;;;;;;;;;;5001243;28;20384;-65
2024/01/11 09:29:49;;;;;;;;;;;;;;;;;;4996236;28;20020;-65
2024/01/11 09:32:16;;;;;;;;;;;;;;;;;;5002488;28;19929;-65
2024/01/11 09:34:45;;;;;;;;;;;;;;;;;;4990759;28;19926;-65
2024/01/11 09:37:12;;;;;;;;;;;;;;;;;;4994316;28;19933;-64
2024/01/11 09:39:39;;;;;;;;;;;;;;;;;;5001517;28;19926;-65
2024/01/11 09:42:06;;;;;;;;;;;;;;;;;;4995291;28;19925;-63
2024/01/11 09:44:33;;;;;;;;;;;;;;;;;;5006434;28;20352;-65
2024/01/11 09:47:00;;;;;;;;;;;;;;;;;;5000291;28;19926;-65
2024/01/11 09:49:27;;;;;;;;;;;;;;;;;;5006273;28;19932;-65
2024/01/11 09:51:56;;;;;;;;;;;;;;;;;;4991446;28;19934;-65
2024/01/11 09:54:23;;;;;;;;;;;;;;;;;;4999686;28;19932;-65
2024/01/11 09:56:51;;;;;;;;;;;;;;;;;;5009911;28;19925;-65
2024/01/11 09:59:19;;;;;;;;;;;;;;;;;;5032336;28;20439;-65
2024/01/11 10:01:46;;;;;;;;;;;;;;;;;;5000919;28;19974;-65
2024/01/11 10:04:13;;;;;;;;;;;;;;;;;;4992645;28;20012;-65
2024/01/11 10:06:40;;;;;;;;;;;;;;;;;;4995209;28;20032;-65
2024/01/11 10:09:08;;;;;;;;;;;;;;;;;;5005729;28;19925;-65
2024/01/11 10:11:35;;;;;;;;;;;;;;;;;;5000199;28;20444;-65
2024/01/11 10:14:03;;;;;;;;;;;;;;;;;;5004542;28;19929;-65
2024/01/11 10:16:30;;;;;;;;;;;;;;;;;;4996534;28;20337;-65
2024/01/11 10:18:57;;;;;;;;;;;;;;;;;;5011443;28;19925;-65
2024/01/11 10:21:24;;;;;;;;;;;;;;;;;;4996329;28;20389;-65
2024/01/11 10:23:51;;;;;;;;;;;;;;;;;;4995356;28;19976;-65
2024/01/11 10:26:18;;;;;;;;;;;;;;;;;;4990851;28;20018;-64
2024/01/11 10:28:45;;;;;;;;;;;;;;;;;;5003310;28;19925;-65
2024/01/11 10:31:14;;;;;;;;;;;;;;;;;;4994624;28;19952;-63
2024/01/11 10:33:41;;;;;;;;;;;;;;;;;;5007175;28;20016;-63
2024/01/11 10:36:09;;;;;;;;;;;;;;;;;;5002325;28;20016;-64
2024/01/11 10:38:37;;;;;;;;;;;;;;;;;;4998216;28;19932;-63
2024/01/11 10:41:04;;;;;;;;;;;;;;;;;;5004022;28;19926;-63
2024/01/11 10:43:31;;;;;;;;;;;;;;;;;;4995368;28;19929;-61
2024/01/11 10:45:58;;;;;;;;;;;;;;;;;;4990510;28;20356;-62
2024/01/11 10:48:25;;;;;;;;;;;;;;;;;;5002411;28;19991;-62
2024/01/11 10:50:52;;;;;;;;;;;;;;;;;;5003018;28;19965;-62
2024/01/11 10:53:18;;;;;;;;;;;;;;;;;;4993668;28;19925;-62
2024/01/11 10:55:45;;;;;;;;;;;;;;;;;;4997873;28;19932;-64
2024/01/11 10:58:13;;;;;;;;;;;;;;;;;;5001406;28;19972;-63
2024/01/11 11:00:40;;;;;;;;;;;;;;;;;;5000842;28;19972;-64
2024/01/11 11:03:07;;;;;;;;;;;;;;;;;;5004316;28;19925;-63
2024/01/11 11:05:35;;;;;;;;;;;;;;;;;;4996179;28;20036;-64
2024/01/11 11:08:02;;;;;;;;;;;;;;;;;;4990074;28;20473;-63
2024/01/11 11:10:30;;;;;;;;;;;;;;;;;;4992663;28;19964;-63
2024/01/11 11:12:59;;;;;;;;;;;;;;;;;;4992536;28;20376;-63
2024/01/11 11:15:26;;;;;;;;;;;;;;;;;;5002331;28;19929;-63
2024/01/11 11:17:53;;;;;;;;;;;;;;;;;;4996278;28;19937;-63
2024/01/11 11:20:20;;;;;;;;;;;;;;;;;;4999191;28;20012;-65
2024/01/11 11:22:48;;;;;;;;;;;;;;;;;;5003911;28;20027;-64
2024/01/11 11:25:15;;;;;;;;;;;;;;;;;;5005726;28;19988;-64
2024/01/11 11:27:42;;;;;;;;;;;;;;;;;;5001270;28;19926;-64
2024/01/11 11:30:09;;;;;;;;;;;;;;;;;;5003377;28;19961;-64
2024/01/11 11:32:37;;;;;;;;;;;;;;;;;;4997830;28;19926;-64
2024/01/11 11:35:04;;;;;;;;;;;;;;;;;;5007855;28;20308;-64
2024/01/11 11:37:31;;;;;;;;;;;;;;;;;;4998422;28;20392;-65
2024/01/11 11:39:59;;;;;;;;;;;;;;;;;;5005682;28;19977;-66
2024/01/11 11:42:26;;;;;;;;;;;;;;;;;;5004374;28;19952;-65
2024/01/11 11:44:53;;;;;;;;;;;;;;;;;;5003242;28;19992;-65
2024/01/11 11:47:20;;;;;;;;;;;;;;;;;;5014361;28;19933;-65
2024/01/11 11:49:47;;;;;;;;;;;;;;;;;;5006301;28;20025;-66
2024/01/11 11:52:14;;;;;;;;;;;;;;;;;;5001056;28;19930;-65
2024/01/11 11:54:43;;;;;;;;;;;;;;;;;;4999904;28;19930;-65
2024/01/11 11:57:10;;;;;;;;;;;;;;;;;;4997643;28;19934;-66
2024/01/11 11:59:38;;;;;;;;;;;;;;;;;;5005023;28;21234;-66
2024/01/11 12:02:05;;;;;;;;;;;;;;;;;;5000965;28;19933;-65
2024/01/11 12:04:32;;;;;;;;;;;;;;;;;;5002192;28;19968;-65
2024/01/11 12:06:59;;;;;;;;;;;;;;;;;;5000658;28;19926;-66
2024/01/11 12:09:26;;;;;;;;;;;;;;;;;;4997760;28;19981;-66
2024/01/11 12:11:53;;;;;;;;;;;;;;;;;;5006384;28;20297;-66
2024/01/11 12:14:20;;;;;;;;;;;;;;;;;;4998925;28;20234;-66
2024/01/11 12:16:47;;;;;;;;;;;;;;;;;;5001733;28;19929;-65
2024/01/11 12:19:14;;;;;;;;;;;;;;;;;;5001638;28;20005;-66
2024/01/11 12:21:41;;;;;;;;;;;;;;;;;;4993430;28;19933;-66
2024/01/11 12:24:09;;;;;;;;;;;;;;;;;;5009402;28;20343;-66
2024/01/11 12:26:36;;;;;;;;;;;;;;;;;;5015868;28;20444;-66
2024/01/11 12:29:03;;;;;;;;;;;;;;;;;;5001217;28;19926;-66
2024/01/11 12:31:30;;;;;;;;;;;;;;;;;;4995750;28;19926;-66
2024/01/11 12:33:57;;;;;;;;;;;;;;;;;;4993492;28;19926;-65
2024/01/11 12:36:25;;;;;;;;;;;;;;;;;;4994902;28;19972;-66
2024/01/11 12:38:52;;;;;;;;;;;;;;;;;;4994436;28;19925;-65
2024/01/11 12:41:19;;;;;;;;;;;;;;;;;;5011069;28;20357;-66
2024/01/11 12:43:46;;;;;;;;;;;;;;;;;;4996088;28;20352;-65
2024/01/11 12:46:13;;;;;;;;;;;;;;;;;;5003299;28;19973;-66
2024/01/11 12:48:41;;;;;;;;;;;;;;;;;;5005206;28;20408;-66
2024/01/11 12:51:08;;;;;;;;;;;;;;;;;;4999978;28;19980;-66
2024/01/11 12:53:35;;;;;;;;;;;;;;;;;;5001406;28;19926;-66
2024/01/11 12:56:02;;;;;;;;;;;;;;;;;;5002498;28;19972;-66
2024/01/11 12:58:29;;;;;;;;;;;;;;;;;;4999568;28;19925;-65
2024/01/11 13:00:57;;;;;;;;;;;;;;;;;;5003847;28;20031;-66
2024/01/11 13:03:24;;;;;;;;;;;;;;;;;;4997038;28;19968;-66
2024/01/11 13:05:54;;;;;;;;;;;;;;;;;;5000778;28;20300;-66
2024/01/11 13:08:21;;;;;;;;;;;;;;;;;;5002387;28;20403;-66
2024/01/11 13:10:48;;;;;;;;;;;;;;;;;;5002855;28;20491;-66
2024/01/11 13:13:15;;;;;;;;;;;;;;;;;;4991748;28;19926;-66
2024/01/11 13:15:42;;;;;;;;;;;;;;;;;;5004480;28;20329;-66
2024/01/11 13:18:09;;;;;;;;;;;;;;;;;;5003904;28;20400;-66
2024/01/11 13:20:36;;;;;;;;;;;;;;;;;;4998454;28;19980;-67
2024/01/11 13:23:03;;;;;;;;;;;;;;;;;;5002567;28;19926;-67
2024/01/11 13:25:30;;;;;;;;;;;;;;;;;;4997305;28;20399;-67
2024/01/11 13:27:58;;;;;;;;;;;;;;;;;;5000169;28;19972;-65
2024/01/11 13:30:25;;;;;;;;;;;;;;;;;;4994641;28;19926;-64
2024/01/11 13:32:52;;;;;;;;;;;;;;;;;;5005031;28;19925;-64
2024/01/11 13:35:20;;;;;;;;;;;;;;;;;;5005138;28;19925;-65
2024/01/11 13:37:47;;;;;;;;;;;;;;;;;;4994387;28;19961;-64
2024/01/11 13:40:14;;;;;;;;;;;;;;;;;;5005091;28;19938;-64
2024/01/11 13:42:41;;;;;;;;;;;;;;;;;;5008055;28;20428;-65
2024/01/11 13:45:09;;;;;;;;;;;;;;;;;;5001645;28;19979;-65
2024/01/11 13:47:36;;;;;;;;;;;;;;;;;;4990767;28;20064;-65
2024/01/11 13:50:03;;;;;;;;;;;;;;;;;;5001002;28;19925;-65
2024/01/11 13:52:30;;;;;;;;;;;;;;;;;;4997450;28;20393;-65
2024/01/11 13:54:57;;;;;;;;;;;;;;;;;;5007767;28;19933;-65
2024/01/11 13:57:24;;;;;;;;;;;;;;;;;;4991826;28;19926;-65
2024/01/11 13:59:51;;;;;;;;;;;;;;;;;;4995852;28;20369;-63
2024/01/11 14:02:18;;;;;;;;;;;;;;;;;;5002663;28;19932;-64
2024/01/11 14:04:45;;;;;;;;;;;;;;;;;;4995451;28;19972;-64
2024/01/11 14:07:20;;;;;;;;;;;;;;;;;;5105435;27;19917;-64
2024/01/11 14:09:47;;;;;;;;;;;;;;;;;;5091090;28;19982;-64
2024/01/11 14:12:15;;;;;;;;;;;;;;;;;;5087531;28;19978;-64
2024/01/11 14:14:42;;;;;;;;;;;;;;;;;;5087305;28;19936;-64
2024/01/11 14:17:09;;;;;;;;;;;;;;;;;;5083391;28;20496;-64
2024/01/11 14:19:36;;;;;;;;;;;;;;;;;;5079590;28;19924;-64
2024/01/11 14:22:03;;;;;;;;;;;;;;;;;;5077677;28;19924;-64
2024/01/11 14:24:30;;;;;;;;;;;;;;;;;;5081756;28;19924;-65
2024/01/11 14:26:58;;;;;;;;;;;;;;;;;;5085240;28;19925;-63
2024/01/11 14:29:25;;;;;;;;;;;;;;;;;;5079241;28;19925;-64
2024/01/11 14:31:53;;;;;;;;;;;;;;;;;;5083674;28;19925;-64
2024/01/11 14:34:20;;;;;;;;;;;;;;;;;;5071052;28;19960;-64
2024/01/11 14:36:47;;;;;;;;;;;;;;;;;;5081626;28;19928;-64
2024/01/11 14:39:14;;;;;;;;;;;;;;;;;;5079483;28;19924;-64
2024/01/11 14:41:41;;;;;;;;;;;;;;;;;;5076936;28;19924;-65
2024/01/11 14:44:09;;;;;;;;;;;;;;;;;;5089767;28;19924;-65
2024/01/11 14:46:36;;;;;;;;;;;;;;;;;;5084301;28;19925;-65
2024/01/11 14:49:04;;;;;;;;;;;;;;;;;;5084213;28;19924;-65
2024/01/11 14:51:33;;;;;;;;;;;;;;;;;;5087037;28;19931;-65
2024/01/11 14:54:00;;;;;;;;;;;;;;;;;;5091931;28;20302;-65
2024/01/11 14:56:27;;;;;;;;;;;;;;;;;;5082761;28;19932;-64
2024/01/11 14:58:55;;;;;;;;;;;;;;;;;;5085803;28;19924;-64
2024/01/11 15:01:22;;;;;;;;;;;;;;;;;;5087799;28;19970;-64
2024/01/11 15:03:49;;;;;;;;;;;;;;;;;;5078866;28;20005;-65
2024/01/11 15:06:16;;;;;;;;;;;;;;;;;;5094237;28;20047;-65
2024/01/11 15:08:43;;;;;;;;;;;;;;;;;;5107644;28;19992;-64
2024/01/11 15:11:10;;;;;;;;;;;;;;;;;;5100669;28;19928;-65
2024/01/11 15:13:38;;;;;;;;;;;;;;;;;;5091099;28;20170;-65
2024/01/11 15:16:06;;;;;;;;;;;;;;;;;;5094951;28;19923;-65
2024/01/11 15:18:33;;;;;;;;;;;;;;;;;;5093252;28;19931;-65
2024/01/11 15:21:00;;;;;;;;;;;;;;;;;;5088539;28;19970;-64
2024/01/11 15:23:27;;;;;;;;;;;;;;;;;;5092227;28;19928;-65
2024/01/11 15:25:54;;;;;;;;;;;;;;;;;;5094359;28;19924;-64
2024/01/11 15:28:21;;;;;;;;;;;;;;;;;;5088032;28;20340;-65
2024/01/11 15:30:48;;;;;;;;;;;;;;;;;;5085737;28;20333;-65
2024/01/11 15:33:15;;;;;;;;;;;;;;;;;;5078867;28;20046;-65
2024/01/11 15:35:42;;;;;;;;;;;;;;;;;;5079222;28;19924;-65
2024/01/11 15:38:09;;;;;;;;;;;;;;;;;;5092184;28;19924;-66
2024/01/11 15:40:37;;;;;;;;;;;;;;;;;;5075325;28;19924;-64
2024/01/11 15:43:06;;;;;;;;;;;;;;;;;;5086600;28;19939;-65
2024/01/11 15:45:33;;;;;;;;;;;;;;;;;;5084108;28;20473;-65
2024/01/11 15:48:00;;;;;;;;;;;;;;;;;;5077829;28;19979;-66
2024/01/11 15:50:27;;;;;;;;;;;;;;;;;;5080164;28;20011;-65
2024/01/11 15:52:55;;;;;;;;;;;;;;;;;;5084560;28;19947;-65
2024/01/11 15:55:22;;;;;;;;;;;;;;;;;;5078821;28;19932;-66
2024/01/11 15:57:49;;;;;;;;;;;;;;;;;;5088317;28;19943;-66
2024/01/11 16:00:16;;;;;;;;;;;;;;;;;;5084242;28;19931;-65
2024/01/11 16:02:44;;;;;;;;;;;;;;;;;;5084013;28;19932;-66
2024/01/11 16:05:11;;;;;;;;;;;;;;;;;;5088143;28;20019;-65
2024/01/11 16:07:38;;;;;;;;;;;;;;;;;;5081216;28;19971;-66
2024/01/11 16:10:05;;;;;;;;;;;;;;;;;;5085020;28;20294;-65
2024/01/11 16:12:32;;;;;;;;;;;;;;;;;;5079393;28;19982;-65
2024/01/11 16:14:59;;;;;;;;;;;;;;;;;;5079050;28;19951;-66
2024/01/11 16:17:26;;;;;;;;;;;;;;;;;;5078516;28;19924;-65
2024/01/11 16:19:54;;;;;;;;;;;;;;;;;;5080431;28;20449;-66
2024/01/11 16:22:21;;;;;;;;;;;;;;;;;;5077916;28;19947;-65
2024/01/11 16:24:48;;;;;;;;;;;;;;;;;;5083598;28;19924;-66
2024/01/11 16:27:15;;;;;;;;;;;;;;;;;;5085133;28;19967;-66
2024/01/11 16:29:42;;;;;;;;;;;;;;;;;;5089513;28;19976;-66
2024/01/11 16:32:09;;;;;;;;;;;;;;;;;;5082706;28;19979;-65
2024/01/11 16:34:36;;;;;;;;;;;;;;;;;;5084273;28;19924;-65
2024/01/11 16:37:03;;;;;;;;;;;;;;;;;;5087960;28;19973;-66
2024/01/11 16:39:30;;;;;;;;;;;;;;;;;;5083882;28;19925;-66
2024/01/11 16:41:57;;;;;;;;;;;;;;;;;;5087141;28;19928;-65
2024/01/11 16:44:25;;;;;;;;;;;;;;;;;;5076576;28;19932;-65